KHSP

Ingalls Field Airport

Hot Springs, Virginia, USA
METAR KHSP 191055Z AUTO 31007KT 10SM CLR 17/17 A3013 RMK AO2 T01740174
Observed Flight Rules
Sep-19 @ 10:55 UTC (8 minutes ago) Visual Flight Rules
Wind Visibility Clouds
310° at 7 knots 10 miles
  • Clear skies
Temperatures Readings
Current 17°C / 63°F
Dewpoint 17°C / 63°F
Humidity 100%
Altimeter 30.13" Hg
Pressure 1020 hPa
Elevation 1156
METAR KHSP 191055Z AUTO 31007KT 10SM CLR 17/17 A3013 RMK AO2 T01740174
Observed Flight Rules
Sep-19 @ 10:55 UTC
(8 minutes ago)
VFR
Wind Visibility
310° at 7 knots 10 miles
Clouds
  • Clear skies
Temperature Dewpoint
17°C / 63°F 17°C / 63°F
Humidity Altimeter Pressure
100% 30.13" Hg 1020 hPa